createdAt,value
2023-07-31T00:00:17.650Z,59.79
2023-07-31T00:01:59.010Z,59.24
2023-07-31T00:03:40.417Z,57.92
2023-07-31T00:05:21.799Z,57.76
2023-07-31T00:07:03.169Z,57.34
2023-07-31T00:08:44.505Z,57.81
2023-07-31T00:10:25.844Z,57.83
2023-07-31T00:12:07.247Z,58.46
2023-07-31T00:13:48.584Z,59.27
2023-07-31T00:15:29.908Z,58.41
2023-07-31T00:17:11.280Z,59.69
2023-07-31T00:18:52.723Z,60.48
2023-07-31T00:20:34.106Z,60.50
2023-07-31T00:22:15.498Z,60.27
2023-07-31T00:23:56.814Z,59.56
2023-07-31T00:25:38.147Z,58.65
2023-07-31T00:27:19.490Z,57.84
2023-07-31T00:29:00.859Z,59.06
2023-07-31T00:30:42.203Z,59.34
2023-07-31T00:32:23.634Z,59.68
2023-07-31T00:34:04.977Z,58.91
2023-07-31T00:35:46.307Z,57.68
2023-07-31T00:37:27.668Z,58.41
2023-07-31T00:39:09.052Z,57.97
2023-07-31T00:40:50.379Z,58.64
2023-07-31T00:42:31.730Z,59.40
2023-07-31T00:44:13.084Z,59.25
2023-07-31T00:45:54.507Z,59.01
2023-07-31T00:47:35.932Z,59.04
2023-07-31T00:49:17.305Z,58.82
2023-07-31T00:50:58.644Z,58.28
2023-07-31T00:52:40.007Z,57.37
2023-07-31T00:54:21.361Z,57.17
2023-07-31T00:56:02.720Z,57.01
2023-07-31T00:57:44.094Z,57.65
2023-07-31T00:59:25.439Z,57.44
2023-07-31T01:01:06.862Z,57.69
2023-07-31T01:02:48.273Z,57.64
2023-07-31T01:04:29.750Z,57.51
2023-07-31T01:06:11.113Z,58.50
2023-07-31T01:07:52.488Z,57.62
2023-07-31T01:09:33.830Z,57.60
2023-07-31T01:11:15.230Z,58.41
2023-07-31T01:12:56.571Z,58.15
2023-07-31T01:14:37.924Z,58.75
2023-07-31T01:16:19.334Z,58.52
2023-07-31T01:18:00.818Z,58.20
2023-07-31T01:19:42.204Z,57.95
2023-07-31T01:21:23.573Z,58.28
2023-07-31T01:23:04.935Z,59.64
2023-07-31T01:24:46.279Z,60.05
2023-07-31T01:26:27.693Z,59.91
2023-07-31T01:28:09.187Z,60.11
2023-07-31T01:29:50.640Z,60.22
2023-07-31T01:31:32.051Z,61.54
2023-07-31T01:33:13.521Z,62.14
2023-07-31T01:34:54.894Z,62.70
2023-07-31T01:36:36.269Z,62.31
2023-07-31T01:38:17.656Z,61.53
2023-07-31T01:39:59.041Z,60.88
2023-07-31T01:41:40.370Z,60.05
2023-07-31T01:43:21.829Z,59.52
2023-07-31T01:45:03.194Z,59.21
2023-07-31T01:46:44.553Z,58.97
2023-07-31T01:48:25.957Z,58.26
2023-07-31T01:50:07.331Z,57.62
2023-07-31T01:51:48.698Z,57.61
2023-07-31T01:53:30.041Z,59.39
2023-07-31T01:55:11.519Z,59.74
2023-07-31T01:56:52.848Z,59.60
2023-07-31T01:58:35.791Z,60.05
2023-07-31T02:00:31.276Z,60.49
2023-07-31T02:02:12.660Z,61.59
2023-07-31T02:03:54.148Z,61.66
2023-07-31T02:05:35.529Z,61.52
2023-07-31T02:07:17.087Z,61.41
2023-07-31T02:08:58.492Z,60.74
2023-07-31T02:10:39.839Z,60.60
2023-07-31T02:12:21.211Z,59.60
2023-07-31T02:14:02.576Z,59.39
2023-07-31T02:15:44.009Z,59.27
2023-07-31T02:17:25.457Z,59.32
2023-07-31T02:19:06.900Z,59.37
2023-07-31T02:20:48.292Z,58.80
2023-07-31T02:22:29.699Z,58.21
2023-07-31T02:24:11.061Z,57.83
2023-07-31T02:25:52.419Z,58.28
2023-07-31T02:27:33.869Z,58.45
2023-07-31T02:29:15.247Z,58.22
2023-07-31T02:30:56.623Z,59.75
2023-07-31T02:32:38.071Z,59.54
2023-07-31T02:34:19.428Z,59.20
2023-07-31T02:36:00.807Z,59.32
2023-07-31T02:37:42.183Z,59.52
2023-07-31T02:39:23.506Z,59.68
2023-07-31T02:41:04.845Z,59.28
2023-07-31T02:42:46.202Z,59.53
2023-07-31T02:44:27.643Z,59.03
2023-07-31T02:46:09.073Z,58.84
2023-07-31T02:47:50.567Z,59.88
2023-07-31T02:49:31.990Z,61.81
2023-07-31T02:51:13.398Z,61.87
2023-07-31T02:52:54.775Z,61.26
2023-07-31T02:54:36.115Z,60.99
2023-07-31T02:56:17.509Z,60.40
2023-07-31T02:57:58.990Z,59.67
2023-07-31T02:59:40.383Z,60.65
2023-07-31T03:01:21.776Z,60.88
2023-07-31T03:03:03.285Z,60.33
2023-07-31T03:04:44.747Z,60.05
2023-07-31T03:06:26.165Z,59.34
2023-07-31T03:08:07.562Z,58.89
2023-07-31T03:09:48.930Z,58.37
2023-07-31T03:11:30.320Z,58.49
2023-07-31T03:13:11.674Z,58.75
2023-07-31T03:14:53.046Z,59.47
2023-07-31T03:16:34.444Z,60.30
2023-07-31T03:18:15.802Z,60.49
2023-07-31T03:19:57.232Z,61.55
2023-07-31T03:21:38.597Z,61.54
2023-07-31T03:23:20.033Z,62.13
2023-07-31T03:25:01.373Z,62.65
2023-07-31T03:26:42.787Z,62.77
2023-07-31T03:28:24.290Z,62.47
2023-07-31T03:30:05.755Z,61.71
2023-07-31T03:31:47.236Z,60.68
2023-07-31T03:33:28.707Z,59.24
2023-07-31T03:35:10.121Z,58.11
2023-07-31T03:36:51.464Z,57.86
2023-07-31T03:38:32.839Z,58.53
2023-07-31T03:40:14.290Z,58.78
2023-07-31T03:41:55.647Z,58.92
2023-07-31T03:43:37.023Z,59.05
2023-07-31T03:45:18.404Z,59.17
2023-07-31T03:46:59.830Z,58.83
2023-07-31T03:48:41.245Z,58.69
2023-07-31T03:50:22.588Z,58.65
2023-07-31T03:52:03.924Z,59.27
2023-07-31T03:53:45.356Z,59.69
2023-07-31T03:55:26.731Z,63.20
2023-07-31T03:57:08.087Z,65.46
2023-07-31T03:58:49.453Z,66.55
2023-07-31T04:00:30.816Z,67.63
2023-07-31T04:02:12.149Z,66.50
2023-07-31T04:03:53.504Z,66.67
2023-07-31T04:05:34.946Z,65.69
2023-07-31T04:07:16.393Z,65.16
2023-07-31T04:08:57.757Z,63.42
2023-07-31T04:10:39.129Z,63.49
2023-07-31T04:12:20.543Z,62.70
2023-07-31T04:14:02.015Z,62.18
2023-07-31T04:15:43.396Z,61.16
2023-07-31T04:17:24.805Z,60.36
2023-07-31T04:19:06.214Z,59.95
2023-07-31T04:20:47.582Z,59.47
2023-07-31T04:22:28.925Z,60.77
2023-07-31T04:24:10.293Z,63.56
2023-07-31T04:25:51.773Z,63.12
2023-07-31T04:27:33.135Z,62.70
2023-07-31T04:29:14.511Z,61.86
2023-07-31T04:30:55.996Z,61.99
2023-07-31T04:32:37.400Z,62.11
2023-07-31T04:34:18.800Z,62.62
2023-07-31T04:36:00.210Z,62.36
2023-07-31T04:37:41.542Z,62.44
2023-07-31T04:39:22.894Z,62.02
2023-07-31T04:41:04.252Z,61.02
2023-07-31T04:42:45.597Z,61.80
2023-07-31T04:44:26.939Z,61.90
2023-07-31T04:46:08.350Z,61.92
2023-07-31T04:47:49.764Z,61.06
2023-07-31T04:49:31.122Z,60.72
2023-07-31T04:51:12.495Z,60.84
2023-07-31T04:52:53.838Z,61.48
2023-07-31T04:54:35.208Z,60.76
2023-07-31T04:56:16.587Z,59.55
2023-07-31T04:57:57.938Z,59.10
2023-07-31T04:59:39.282Z,58.96
2023-07-31T05:01:20.711Z,60.34
2023-07-31T05:03:02.145Z,62.56
2023-07-31T05:04:43.559Z,62.18
2023-07-31T05:06:24.933Z,61.97
2023-07-31T05:08:06.282Z,62.74
2023-07-31T05:09:47.697Z,62.70
2023-07-31T05:11:29.104Z,62.01
2023-07-31T05:13:10.443Z,60.96
2023-07-31T05:14:51.775Z,61.74
2023-07-31T05:16:33.248Z,61.16
2023-07-31T05:18:14.625Z,60.92
2023-07-31T05:19:55.936Z,60.50
2023-07-31T05:21:37.292Z,60.89
2023-07-31T05:23:18.639Z,60.91
2023-07-31T05:25:00.010Z,60.01
2023-07-31T05:26:41.665Z,58.69
2023-07-31T05:28:23.259Z,58.67
2023-07-31T05:30:04.616Z,59.91
2023-07-31T05:31:46.005Z,60.28
2023-07-31T05:33:27.442Z,57.56
2023-07-31T05:35:08.863Z,59.11
2023-07-31T05:36:50.235Z,59.45
2023-07-31T05:38:31.627Z,59.28
2023-07-31T05:40:13.012Z,60.44
2023-07-31T05:41:54.356Z,59.63
2023-07-31T05:43:35.736Z,59.06
2023-07-31T05:45:17.068Z,59.44
2023-07-31T05:46:58.492Z,58.48
2023-07-31T05:48:39.862Z,59.08
2023-07-31T05:50:21.178Z,58.06
2023-07-31T05:52:02.534Z,58.04
2023-07-31T05:53:43.926Z,57.25
2023-07-31T05:55:25.328Z,57.16
2023-07-31T05:57:06.680Z,58.18
2023-07-31T05:58:48.070Z,57.60
2023-07-31T06:00:29.554Z,57.37
2023-07-31T06:02:10.942Z,57.80
2023-07-31T06:03:52.383Z,56.93
2023-07-31T06:05:33.815Z,57.81
2023-07-31T06:07:15.179Z,58.56
2023-07-31T06:08:56.531Z,58.35
2023-07-31T06:10:37.900Z,58.16
2023-07-31T06:12:19.238Z,58.28
2023-07-31T06:14:00.595Z,58.26
2023-07-31T06:15:41.973Z,58.64
2023-07-31T06:17:23.370Z,58.93
2023-07-31T06:19:04.769Z,59.07
2023-07-31T06:20:46.133Z,58.44
2023-07-31T06:22:27.502Z,58.65
2023-07-31T06:24:08.861Z,59.57
2023-07-31T06:25:50.223Z,60.56
2023-07-31T06:27:31.577Z,60.72
2023-07-31T06:29:12.943Z,60.38
2023-07-31T06:30:54.318Z,60.25
2023-07-31T06:32:35.750Z,59.78
2023-07-31T06:34:17.179Z,58.85
2023-07-31T06:35:58.566Z,58.36
2023-07-31T06:37:39.942Z,59.12
2023-07-31T06:39:21.295Z,58.98
2023-07-31T06:41:02.654Z,59.10
2023-07-31T06:42:44.036Z,58.86
2023-07-31T06:44:25.391Z,58.42
2023-07-31T06:46:06.798Z,59.91
2023-07-31T06:47:48.217Z,59.88
2023-07-31T06:49:29.627Z,60.53
2023-07-31T06:51:10.978Z,61.17
2023-07-31T06:52:52.331Z,62.43
2023-07-31T06:54:33.699Z,62.04
2023-07-31T06:56:15.051Z,61.68
2023-07-31T06:57:56.385Z,60.45
2023-07-31T06:59:37.749Z,61.66
2023-07-31T07:01:19.162Z,62.49
2023-07-31T07:03:00.610Z,63.66
2023-07-31T07:04:41.975Z,62.77
2023-07-31T07:06:23.383Z,62.87
2023-07-31T07:08:04.758Z,63.38
2023-07-31T07:09:46.129Z,65.11
2023-07-31T07:11:27.512Z,66.44
2023-07-31T07:13:08.878Z,65.32
2023-07-31T07:14:50.226Z,65.65
2023-07-31T07:16:31.620Z,63.88
2023-07-31T07:18:13.044Z,62.39
2023-07-31T07:19:54.369Z,60.30
2023-07-31T07:21:35.752Z,58.02
2023-07-31T07:23:17.099Z,57.17
2023-07-31T07:24:58.433Z,54.13
2023-07-31T07:26:41.493Z,52.38
2023-07-31T07:28:23.392Z,54.50
2023-07-31T07:30:04.787Z,53.26
2023-07-31T07:31:46.152Z,51.30
2023-07-31T07:33:27.486Z,51.68
2023-07-31T07:35:08.898Z,50.98
2023-07-31T07:36:50.259Z,50.91
2023-07-31T07:38:31.602Z,48.76
2023-07-31T07:40:13.006Z,45.68
2023-07-31T07:41:54.348Z,45.08
2023-07-31T07:43:35.722Z,44.69
2023-07-31T07:45:17.207Z,43.70
2023-07-31T07:46:58.612Z,40.90
2023-07-31T07:48:40.018Z,43.11
2023-07-31T07:50:21.432Z,43.68
2023-07-31T07:52:02.884Z,43.07
2023-07-31T07:53:44.263Z,41.40
2023-07-31T07:55:25.644Z,42.80
2023-07-31T07:57:07.442Z,42.81
2023-07-31T07:58:48.776Z,43.41
2023-07-31T08:00:30.221Z,40.80
2023-07-31T08:02:11.570Z,40.51
2023-07-31T08:03:52.994Z,40.47
2023-07-31T08:05:34.519Z,44.18
2023-07-31T08:07:15.929Z,46.86
2023-07-31T08:08:57.313Z,47.89
2023-07-31T08:10:38.649Z,50.36
2023-07-31T08:12:20.050Z,51.35
2023-07-31T08:14:01.470Z,50.15
2023-07-31T08:15:42.854Z,49.12
2023-07-31T08:17:24.254Z,49.50
2023-07-31T08:19:05.878Z,49.64
2023-07-31T08:20:47.298Z,49.82
2023-07-31T08:22:28.637Z,48.71
2023-07-31T08:24:10.158Z,49.31
2023-07-31T08:25:51.503Z,50.00
2023-07-31T08:27:32.842Z,50.65
2023-07-31T08:29:14.213Z,49.43
2023-07-31T08:30:55.643Z,50.12
2023-07-31T08:32:37.124Z,49.28
2023-07-31T08:34:18.500Z,47.51
2023-07-31T08:35:59.828Z,47.11
2023-07-31T08:37:41.179Z,47.45
2023-07-31T08:39:22.532Z,45.17
2023-07-31T08:41:04.005Z,49.04
2023-07-31T08:42:45.418Z,48.71
2023-07-31T08:44:26.826Z,47.94
2023-07-31T08:46:08.219Z,47.87
2023-07-31T08:47:49.792Z,46.95
2023-07-31T08:49:31.235Z,47.86
2023-07-31T08:51:12.762Z,45.87
2023-07-31T08:52:55.584Z,47.68
2023-07-31T08:54:38.191Z,47.79
2023-07-31T08:56:19.560Z,47.30
2023-07-31T08:58:00.894Z,47.35
2023-07-31T08:59:42.214Z,47.49
2023-07-31T09:01:23.599Z,48.28
2023-07-31T09:03:05.112Z,46.95
2023-07-31T09:04:46.564Z,46.09
2023-07-31T09:06:27.906Z,46.50
2023-07-31T09:08:09.256Z,47.03
2023-07-31T09:09:50.644Z,46.13
2023-07-31T09:11:31.979Z,46.33
2023-07-31T09:13:13.485Z,47.70
2023-07-31T09:14:54.929Z,47.00
2023-07-31T09:16:36.297Z,48.03
2023-07-31T09:18:17.705Z,47.34
2023-07-31T09:19:59.036Z,47.29
2023-07-31T09:21:40.404Z,47.38
2023-07-31T09:23:21.808Z,47.47
2023-07-31T09:25:03.136Z,47.63
2023-07-31T09:26:44.512Z,47.19
2023-07-31T09:28:28.850Z,45.62
2023-07-31T09:30:10.360Z,45.26
2023-07-31T09:31:51.836Z,46.02
2023-07-31T09:33:33.279Z,45.38
2023-07-31T09:35:14.622Z,45.08
2023-07-31T09:36:56.043Z,45.54
2023-07-31T09:38:37.380Z,43.99
2023-07-31T09:40:18.744Z,43.51
2023-07-31T09:42:00.123Z,42.80
2023-07-31T09:43:41.497Z,40.90
2023-07-31T09:45:28.333Z,41.83
2023-07-31T09:47:13.627Z,42.37
2023-07-31T09:48:54.993Z,41.24
2023-07-31T09:50:36.361Z,40.35
2023-07-31T09:52:17.715Z,40.86
2023-07-31T09:53:59.080Z,39.51
2023-07-31T09:55:40.410Z,40.40
2023-07-31T09:57:21.757Z,40.29
2023-07-31T09:59:03.127Z,39.37
2023-07-31T10:00:44.485Z,38.80
2023-07-31T10:02:25.895Z,39.59
2023-07-31T10:04:07.306Z,39.77
2023-07-31T10:05:48.713Z,38.84
2023-07-31T10:07:30.073Z,39.56
2023-07-31T10:09:11.414Z,38.42
2023-07-31T10:10:52.792Z,39.50
2023-07-31T10:12:34.161Z,37.63
2023-07-31T10:14:15.513Z,37.28
2023-07-31T10:15:56.904Z,37.79
2023-07-31T10:17:38.322Z,36.45
2023-07-31T10:19:19.701Z,36.42
2023-07-31T10:21:01.052Z,35.39
2023-07-31T10:22:42.410Z,35.01
2023-07-31T10:24:23.809Z,35.39
2023-07-31T10:26:05.167Z,35.52
2023-07-31T10:27:46.516Z,34.74
2023-07-31T10:29:27.982Z,35.37
2023-07-31T10:31:09.500Z,34.21
2023-07-31T10:32:50.906Z,35.85
2023-07-31T10:34:32.332Z,36.25
2023-07-31T10:36:13.722Z,36.81
2023-07-31T10:37:55.126Z,35.62
2023-07-31T10:39:36.505Z,34.57
2023-07-31T10:41:17.852Z,34.72
2023-07-31T10:42:59.333Z,35.30
2023-07-31T10:44:41.522Z,33.98
2023-07-31T10:46:23.240Z,35.11
2023-07-31T10:48:04.945Z,35.39
2023-07-31T10:49:46.459Z,34.88
2023-07-31T10:51:28.033Z,35.41
2023-07-31T10:53:09.405Z,34.96
2023-07-31T10:54:50.776Z,35.34
2023-07-31T10:56:32.134Z,35.50
2023-07-31T10:58:13.488Z,33.85
2023-07-31T10:59:54.920Z,31.42
2023-07-31T11:01:36.398Z,32.33
2023-07-31T11:03:17.965Z,32.49
2023-07-31T11:04:59.616Z,32.15
2023-07-31T11:06:41.298Z,31.44
2023-07-31T11:08:22.858Z,31.36
2023-07-31T11:10:04.209Z,32.91
2023-07-31T11:11:46.613Z,30.21
2023-07-31T11:13:27.952Z,31.97
2023-07-31T11:15:09.345Z,30.32
2023-07-31T11:16:50.727Z,32.62
2023-07-31T11:18:32.201Z,33.21
2023-07-31T11:20:17.277Z,35.21
2023-07-31T11:21:58.820Z,33.76
2023-07-31T11:23:40.152Z,34.18
2023-07-31T11:25:21.500Z,35.05
2023-07-31T11:27:02.879Z,34.09
2023-07-31T11:28:44.236Z,31.71
2023-07-31T11:30:25.881Z,30.13
2023-07-31T11:32:07.351Z,30.21
2023-07-31T11:33:48.710Z,32.12
2023-07-31T11:35:30.180Z,32.86
2023-07-31T11:37:11.520Z,32.20
2023-07-31T11:38:52.849Z,32.50
2023-07-31T11:40:34.203Z,32.06
2023-07-31T11:42:15.554Z,33.73
2023-07-31T11:43:56.911Z,33.54
2023-07-31T11:45:38.283Z,33.15
2023-07-31T11:47:19.691Z,33.43
2023-07-31T11:49:01.078Z,33.47
2023-07-31T11:50:42.594Z,34.35
2023-07-31T11:52:23.992Z,34.33
2023-07-31T11:54:05.368Z,32.63
2023-07-31T11:55:46.713Z,30.62
2023-07-31T11:57:28.090Z,33.19
2023-07-31T11:59:09.544Z,33.18
2023-07-31T12:00:50.908Z,33.34
2023-07-31T12:02:32.524Z,33.11
2023-07-31T12:04:14.127Z,31.56
2023-07-31T12:05:55.731Z,33.31
2023-07-31T12:07:37.265Z,33.13
2023-07-31T12:09:18.652Z,32.50
2023-07-31T12:11:00.022Z,32.22
2023-07-31T12:12:41.359Z,32.47
2023-07-31T12:14:22.709Z,32.13
2023-07-31T12:16:04.129Z,34.21
2023-07-31T12:17:45.631Z,34.94
2023-07-31T12:19:27.022Z,34.53
2023-07-31T12:21:08.349Z,35.33
2023-07-31T12:22:50.348Z,35.38
2023-07-31T12:24:32.214Z,33.98
2023-07-31T12:26:13.722Z,33.68
2023-07-31T12:27:55.398Z,34.58
2023-07-31T12:29:39.054Z,35.00
2023-07-31T12:31:23.360Z,34.28
2023-07-31T12:33:05.025Z,34.74
2023-07-31T12:34:46.469Z,35.38
2023-07-31T12:36:27.825Z,34.79
2023-07-31T12:38:09.157Z,33.80
2023-07-31T12:39:51.016Z,33.95
2023-07-31T12:41:32.718Z,34.27
2023-07-31T12:43:14.083Z,33.49
2023-07-31T12:44:56.152Z,34.32
2023-07-31T12:46:38.068Z,33.73
2023-07-31T12:48:20.048Z,34.47
2023-07-31T12:50:01.385Z,34.62
2023-07-31T12:51:42.744Z,34.33
2023-07-31T12:53:24.137Z,32.86
2023-07-31T12:55:05.476Z,34.39
2023-07-31T12:56:47.483Z,35.88
2023-07-31T12:58:29.004Z,36.32
2023-07-31T13:00:10.370Z,38.12
2023-07-31T13:01:52.072Z,39.26
2023-07-31T13:03:33.655Z,37.22
2023-07-31T13:05:15.125Z,36.00
2023-07-31T13:06:56.585Z,35.70
2023-07-31T13:08:38.236Z,36.12
2023-07-31T13:10:19.772Z,35.95
2023-07-31T13:12:01.380Z,35.77
2023-07-31T13:13:42.714Z,35.52
2023-07-31T13:15:24.086Z,36.03
2023-07-31T13:17:05.542Z,36.52
2023-07-31T13:18:46.885Z,36.77
2023-07-31T13:20:28.219Z,37.08
2023-07-31T13:22:09.601Z,36.97
2023-07-31T13:23:50.956Z,36.05
2023-07-31T13:25:32.278Z,36.11
2023-07-31T13:27:13.625Z,35.60
2023-07-31T13:28:54.989Z,36.09
2023-07-31T13:30:36.365Z,37.48
2023-07-31T13:32:17.730Z,36.31
2023-07-31T13:33:59.186Z,35.73
2023-07-31T13:35:40.549Z,35.13
2023-07-31T13:37:21.912Z,34.37
2023-07-31T13:39:03.286Z,36.18
2023-07-31T13:40:44.662Z,36.89
2023-07-31T13:42:26.018Z,35.33
2023-07-31T13:44:07.366Z,36.26
2023-07-31T13:45:48.699Z,35.40
2023-07-31T13:47:30.125Z,35.12
2023-07-31T13:49:11.501Z,34.28
2023-07-31T13:50:52.844Z,34.54
2023-07-31T13:52:34.336Z,33.97
2023-07-31T13:54:15.734Z,34.91
2023-07-31T13:55:57.751Z,35.66
2023-07-31T13:57:39.345Z,35.35
2023-07-31T13:59:20.790Z,33.73
2023-07-31T14:01:02.196Z,33.58
2023-07-31T14:02:43.648Z,34.85
2023-07-31T14:04:25.079Z,34.69
2023-07-31T14:06:06.432Z,33.77
2023-07-31T14:07:47.833Z,33.88
2023-07-31T14:09:29.200Z,36.08
2023-07-31T14:11:10.621Z,34.62
2023-07-31T14:12:51.980Z,33.72
2023-07-31T14:14:33.375Z,33.44
2023-07-31T14:16:14.788Z,34.37
2023-07-31T14:17:58.253Z,35.57
2023-07-31T14:19:41.459Z,35.67
2023-07-31T14:21:23.046Z,33.95
2023-07-31T14:23:04.416Z,32.54
2023-07-31T14:24:45.781Z,34.41
2023-07-31T14:26:27.135Z,34.20
2023-07-31T14:28:08.541Z,34.92
2023-07-31T14:29:49.922Z,34.81
2023-07-31T14:31:31.345Z,34.54
2023-07-31T14:33:14.005Z,33.60
2023-07-31T14:34:55.365Z,33.78
2023-07-31T14:36:36.713Z,32.79
2023-07-31T14:38:18.068Z,32.56
2023-07-31T14:39:59.440Z,34.74
2023-07-31T14:41:40.869Z,32.69
2023-07-31T14:43:22.300Z,32.91
2023-07-31T14:45:03.652Z,34.43
2023-07-31T14:46:45.053Z,34.57
2023-07-31T14:48:26.469Z,34.98
2023-07-31T14:50:07.886Z,34.54
2023-07-31T14:51:49.231Z,36.68
2023-07-31T14:53:30.564Z,33.48
2023-07-31T14:55:12.180Z,34.20
2023-07-31T14:56:53.867Z,34.59
2023-07-31T14:58:35.203Z,32.99
2023-07-31T15:00:16.578Z,31.19
2023-07-31T15:01:58.020Z,29.45
2023-07-31T15:03:39.509Z,31.19
2023-07-31T15:05:20.957Z,34.61
2023-07-31T15:07:02.436Z,35.54
2023-07-31T15:08:43.772Z,31.77
2023-07-31T15:10:25.325Z,30.90
2023-07-31T15:12:07.201Z,31.97
2023-07-31T15:13:48.608Z,32.52
2023-07-31T15:15:29.969Z,35.20
2023-07-31T15:17:11.339Z,35.92
2023-07-31T15:18:52.684Z,33.56
2023-07-31T15:20:34.066Z,32.17
2023-07-31T15:22:15.689Z,30.30
2023-07-31T15:23:57.314Z,32.09
2023-07-31T15:25:38.725Z,34.27
2023-07-31T15:27:20.138Z,33.15
2023-07-31T15:29:01.508Z,34.03
2023-07-31T15:30:42.897Z,34.79
2023-07-31T15:32:24.277Z,34.06
2023-07-31T15:34:06.337Z,36.41
2023-07-31T15:35:47.814Z,35.73
2023-07-31T15:37:29.490Z,35.55
2023-07-31T15:39:11.063Z,36.25
2023-07-31T15:40:52.763Z,35.69
2023-07-31T15:42:34.304Z,36.73
2023-07-31T15:44:15.626Z,36.08
2023-07-31T15:45:57.255Z,36.76
2023-07-31T15:47:38.940Z,37.25
2023-07-31T15:49:20.396Z,36.65
2023-07-31T15:51:01.797Z,35.17
2023-07-31T15:52:43.287Z,36.33
2023-07-31T15:54:24.644Z,36.19
2023-07-31T15:56:06.164Z,36.74
2023-07-31T15:57:47.727Z,37.75
2023-07-31T15:59:29.238Z,38.22
2023-07-31T16:01:10.686Z,38.75
2023-07-31T16:02:52.176Z,38.25
2023-07-31T16:04:33.696Z,39.12
2023-07-31T16:06:15.045Z,38.04
2023-07-31T16:07:56.423Z,38.92
2023-07-31T16:09:37.774Z,38.67
2023-07-31T16:11:19.240Z,39.09
2023-07-31T16:13:00.830Z,39.26
2023-07-31T16:14:42.271Z,40.40
2023-07-31T16:16:23.722Z,39.87
2023-07-31T16:18:05.449Z,39.78
2023-07-31T16:19:46.965Z,39.28
2023-07-31T16:21:28.339Z,38.26
2023-07-31T16:23:09.752Z,40.04
2023-07-31T16:24:51.103Z,39.26
2023-07-31T16:26:33.111Z,37.64
2023-07-31T16:28:14.823Z,39.16
2023-07-31T16:29:56.341Z,39.68
2023-07-31T16:31:51.380Z,38.71
2023-07-31T16:33:37.409Z,39.81
2023-07-31T16:35:18.818Z,39.39
2023-07-31T16:37:00.225Z,40.13
2023-07-31T16:38:41.861Z,39.69
2023-07-31T16:40:23.419Z,41.15
2023-07-31T16:42:04.768Z,39.97
2023-07-31T16:43:46.288Z,39.57
2023-07-31T16:45:27.659Z,38.54
2023-07-31T16:47:09.061Z,39.06
2023-07-31T16:48:50.507Z,40.67
2023-07-31T16:50:32.020Z,40.98
2023-07-31T16:52:13.361Z,40.11
2023-07-31T16:53:54.724Z,38.95
2023-07-31T16:55:36.075Z,39.41
2023-07-31T16:57:17.629Z,40.28
2023-07-31T16:58:59.166Z,39.42
2023-07-31T17:00:40.544Z,41.05
2023-07-31T17:02:22.107Z,41.11
2023-07-31T17:04:03.949Z,42.55
2023-07-31T17:05:45.781Z,42.84
2023-07-31T17:07:27.438Z,42.36
2023-07-31T17:09:09.033Z,42.96
2023-07-31T17:10:50.412Z,42.77
2023-07-31T17:12:31.967Z,42.52
2023-07-31T17:14:16.319Z,42.80
2023-07-31T17:15:58.131Z,42.57
2023-07-31T17:17:39.530Z,42.92
2023-07-31T17:19:20.913Z,41.83
2023-07-31T17:21:02.264Z,43.07
2023-07-31T17:22:48.569Z,43.22
2023-07-31T17:24:30.781Z,40.93
2023-07-31T17:26:12.456Z,41.93
2023-07-31T17:27:54.823Z,41.97
2023-07-31T17:29:37.520Z,42.34
2023-07-31T17:31:19.035Z,40.92
2023-07-31T17:33:00.799Z,41.66
2023-07-31T17:34:42.400Z,40.81
2023-07-31T17:36:23.748Z,42.33
2023-07-31T17:38:05.122Z,43.68
2023-07-31T17:39:46.749Z,42.25
2023-07-31T17:41:28.305Z,41.59
2023-07-31T17:43:10.108Z,42.05
2023-07-31T17:44:51.597Z,43.06
2023-07-31T17:46:32.963Z,43.47
2023-07-31T17:48:14.371Z,43.75
2023-07-31T17:49:55.689Z,45.43
2023-07-31T17:51:37.039Z,45.03
2023-07-31T17:53:18.426Z,45.45
2023-07-31T17:54:59.772Z,46.47
2023-07-31T17:56:41.342Z,46.56
2023-07-31T17:58:22.893Z,46.92
2023-07-31T18:00:04.270Z,46.87
2023-07-31T18:01:45.653Z,45.37
2023-07-31T18:03:27.298Z,45.08
2023-07-31T18:05:08.786Z,46.64
2023-07-31T18:06:50.721Z,46.82
2023-07-31T18:08:32.083Z,46.75
2023-07-31T18:10:13.459Z,46.43
2023-07-31T18:11:54.801Z,46.82
2023-07-31T18:13:36.934Z,47.81
2023-07-31T18:15:18.661Z,47.82
2023-07-31T18:17:00.169Z,47.97
2023-07-31T18:18:41.573Z,48.90
2023-07-31T18:20:23.093Z,49.82
2023-07-31T18:22:04.614Z,50.46
2023-07-31T18:23:46.065Z,49.56
2023-07-31T18:25:27.476Z,48.56
2023-07-31T18:27:08.839Z,47.85
2023-07-31T18:28:51.840Z,48.29
2023-07-31T18:30:33.219Z,49.25
2023-07-31T18:32:14.628Z,49.63
2023-07-31T18:33:55.997Z,49.97
2023-07-31T18:35:37.370Z,48.90
2023-07-31T18:37:18.841Z,49.05
2023-07-31T18:39:00.211Z,49.28
2023-07-31T18:40:41.696Z,49.11
2023-07-31T18:42:23.100Z,48.90
2023-07-31T18:44:04.468Z,48.77
2023-07-31T18:45:45.872Z,50.08
2023-07-31T18:47:27.303Z,49.63
2023-07-31T18:49:08.813Z,52.31
2023-07-31T18:50:50.378Z,51.45
2023-07-31T18:52:31.822Z,51.14
2023-07-31T18:54:13.339Z,50.49
2023-07-31T18:55:54.693Z,49.85
2023-07-31T18:57:36.154Z,48.86
2023-07-31T18:59:17.505Z,49.64
2023-07-31T19:00:58.952Z,50.06
2023-07-31T19:02:40.415Z,51.37
2023-07-31T19:04:21.941Z,50.47
2023-07-31T19:06:03.713Z,49.69
2023-07-31T19:07:47.041Z,48.66
2023-07-31T19:09:28.547Z,48.97
2023-07-31T19:11:12.525Z,49.32
2023-07-31T19:12:56.351Z,49.72
2023-07-31T19:14:37.825Z,49.72
2023-07-31T19:16:19.409Z,49.81
2023-07-31T19:18:00.885Z,49.17
2023-07-31T19:19:42.286Z,50.12
2023-07-31T19:21:23.645Z,50.80
2023-07-31T19:23:05.139Z,51.83
2023-07-31T19:24:46.613Z,51.69
2023-07-31T19:26:28.000Z,51.02
2023-07-31T19:28:09.474Z,50.59
2023-07-31T19:29:50.995Z,51.66
2023-07-31T19:31:32.411Z,51.01
2023-07-31T19:33:13.793Z,52.00
2023-07-31T19:34:55.162Z,51.78
2023-07-31T19:36:36.652Z,52.71
2023-07-31T19:38:18.034Z,53.18
2023-07-31T19:39:59.405Z,53.49
2023-07-31T19:41:40.783Z,51.86
2023-07-31T19:43:22.186Z,50.91
2023-07-31T19:45:03.631Z,49.82
2023-07-31T19:46:45.023Z,48.93
2023-07-31T19:48:26.449Z,50.77
2023-07-31T19:50:07.793Z,50.73
2023-07-31T19:51:49.171Z,51.27
2023-07-31T19:53:30.546Z,50.92
2023-07-31T19:55:11.902Z,50.15
2023-07-31T19:56:54.528Z,49.64
2023-07-31T19:58:35.960Z,49.57
2023-07-31T20:00:17.341Z,50.12
2023-07-31T20:01:58.765Z,50.16
2023-07-31T20:03:40.494Z,50.84
2023-07-31T20:05:21.918Z,50.67
2023-07-31T20:07:03.296Z,51.89
2023-07-31T20:08:44.841Z,52.02
2023-07-31T20:10:26.277Z,51.56
2023-07-31T20:12:07.674Z,51.09
2023-07-31T20:13:49.052Z,50.98
2023-07-31T20:15:30.503Z,51.73
2023-07-31T20:17:11.878Z,51.95
2023-07-31T20:18:53.318Z,53.89
2023-07-31T20:20:34.706Z,53.09
2023-07-31T20:22:16.065Z,51.95
2023-07-31T20:23:57.414Z,51.13
2023-07-31T20:25:38.780Z,51.09
2023-07-31T20:27:20.202Z,51.33
2023-07-31T20:29:01.560Z,50.88
2023-07-31T20:30:42.935Z,51.38
2023-07-31T20:32:24.472Z,50.28
2023-07-31T20:34:05.890Z,50.76
2023-07-31T20:35:47.332Z,51.02
2023-07-31T20:37:28.693Z,50.32
2023-07-31T20:39:10.048Z,50.04
2023-07-31T20:40:51.451Z,49.39
2023-07-31T20:42:32.802Z,49.44
2023-07-31T20:44:14.181Z,50.05
2023-07-31T20:45:55.559Z,50.20
2023-07-31T20:47:37.060Z,49.54
2023-07-31T20:49:19.973Z,49.92
2023-07-31T20:51:01.369Z,51.91
2023-07-31T20:52:42.717Z,52.12
2023-07-31T20:54:24.121Z,51.79
2023-07-31T20:56:05.466Z,51.28
2023-07-31T20:57:46.842Z,50.70
2023-07-31T20:59:28.217Z,50.49
2023-07-31T21:01:09.563Z,49.93
2023-07-31T21:02:51.120Z,50.07
2023-07-31T21:04:32.595Z,50.94
2023-07-31T21:06:13.961Z,51.56
2023-07-31T21:07:55.322Z,52.10
2023-07-31T21:09:36.702Z,53.11
2023-07-31T21:11:18.062Z,53.79
2023-07-31T21:12:59.401Z,53.93
2023-07-31T21:14:40.768Z,53.38
2023-07-31T21:16:22.113Z,54.07
2023-07-31T21:18:03.497Z,54.48
2023-07-31T21:19:44.925Z,52.34
2023-07-31T21:21:26.279Z,51.95
2023-07-31T21:23:07.664Z,51.77
2023-07-31T21:24:49.101Z,52.64
2023-07-31T21:26:30.487Z,52.28
2023-07-31T21:28:11.910Z,51.44
2023-07-31T21:29:53.376Z,51.69
2023-07-31T21:31:34.770Z,51.84
2023-07-31T21:33:16.162Z,51.20
2023-07-31T21:34:57.539Z,50.34
2023-07-31T21:36:39.135Z,50.69
2023-07-31T21:38:20.758Z,50.72
2023-07-31T21:40:02.111Z,50.96
2023-07-31T21:41:43.481Z,50.15
2023-07-31T21:43:24.934Z,50.25
2023-07-31T21:45:06.288Z,51.91
2023-07-31T21:46:47.697Z,52.81